sensor_id;sensor_type;location;lat;lon;timestamp;P1;durP1;ratioP1;P2;durP2;ratioP2
6751;SDS011;3413;47.680;9.166;2023-08-20T00:03:26;6.87;;;3.67;;
6751;SDS011;3413;47.680;9.166;2023-08-20T00:08:28;5.03;;;2.90;;
6751;SDS011;3413;47.680;9.166;2023-08-20T00:13:30;6.57;;;3.30;;
6751;SDS011;3413;47.680;9.166;2023-08-20T00:18:32;6.37;;;3.17;;
6751;SDS011;3413;47.680;9.166;2023-08-20T00:23:37;6.17;;;3.60;;
6751;SDS011;3413;47.680;9.166;2023-08-20T00:28:39;6.13;;;2.90;;
6751;SDS011;3413;47.680;9.166;2023-08-20T00:33:41;8.67;;;3.63;;
6751;SDS011;3413;47.680;9.166;2023-08-20T00:38:57;7.40;;;3.07;;
6751;SDS011;3413;47.680;9.166;2023-08-20T00:43:59;6.30;;;3.20;;
6751;SDS011;3413;47.680;9.166;2023-08-20T00:49:01;6.50;;;3.10;;
6751;SDS011;3413;47.680;9.166;2023-08-20T00:54:03;5.50;;;3.17;;
6751;SDS011;3413;47.680;9.166;2023-08-20T00:59:05;8.07;;;3.60;;
6751;SDS011;3413;47.680;9.166;2023-08-20T01:04:08;8.73;;;3.70;;
6751;SDS011;3413;47.680;9.166;2023-08-20T01:14:36;5.93;;;3.20;;
6751;SDS011;3413;47.680;9.166;2023-08-20T01:19:38;9.00;;;3.60;;
6751;SDS011;3413;47.680;9.166;2023-08-20T01:24:53;5.97;;;3.23;;
6751;SDS011;3413;47.680;9.166;2023-08-20T01:30:19;11.90;;;3.53;;
6751;SDS011;3413;47.680;9.166;2023-08-20T01:35:24;8.00;;;3.50;;
6751;SDS011;3413;47.680;9.166;2023-08-20T01:40:48;10.97;;;3.67;;
6751;SDS011;3413;47.680;9.166;2023-08-20T01:45:50;11.30;;;3.67;;
6751;SDS011;3413;47.680;9.166;2023-08-20T01:50:52;9.03;;;3.17;;
6751;SDS011;3413;47.680;9.166;2023-08-20T01:55:54;8.53;;;3.20;;
6751;SDS011;3413;47.680;9.166;2023-08-20T02:00:57;7.53;;;3.70;;
6751;SDS011;3413;47.680;9.166;2023-08-20T02:05:59;5.60;;;3.50;;
6751;SDS011;3413;47.680;9.166;2023-08-20T02:11:04;5.93;;;3.47;;
6751;SDS011;3413;47.680;9.166;2023-08-20T02:16:06;11.03;;;3.60;;
6751;SDS011;3413;47.680;9.166;2023-08-20T02:21:08;7.33;;;3.00;;
6751;SDS011;3413;47.680;9.166;2023-08-20T02:26:10;6.97;;;4.20;;
6751;SDS011;3413;47.680;9.166;2023-08-20T02:31:12;7.00;;;3.20;;
6751;SDS011;3413;47.680;9.166;2023-08-20T02:36:14;14.03;;;3.67;;
6751;SDS011;3413;47.680;9.166;2023-08-20T02:41:16;6.10;;;3.50;;
6751;SDS011;3413;47.680;9.166;2023-08-20T02:46:18;6.73;;;3.50;;
6751;SDS011;3413;47.680;9.166;2023-08-20T02:51:20;7.97;;;3.53;;
6751;SDS011;3413;47.680;9.166;2023-08-20T02:56:22;6.63;;;3.23;;
6751;SDS011;3413;47.680;9.166;2023-08-20T03:01:25;6.27;;;3.50;;
6751;SDS011;3413;47.680;9.166;2023-08-20T03:06:29;5.97;;;3.60;;
6751;SDS011;3413;47.680;9.166;2023-08-20T03:11:31;7.57;;;3.37;;
6751;SDS011;3413;47.680;9.166;2023-08-20T03:16:33;9.43;;;3.50;;
6751;SDS011;3413;47.680;9.166;2023-08-20T03:21:35;7.53;;;3.60;;
6751;SDS011;3413;47.680;9.166;2023-08-20T03:26:36;6.20;;;3.37;;
6751;SDS011;3413;47.680;9.166;2023-08-20T03:31:39;9.00;;;4.07;;
6751;SDS011;3413;47.680;9.166;2023-08-20T03:36:41;6.83;;;3.13;;
6751;SDS011;3413;47.680;9.166;2023-08-20T03:41:45;13.50;;;3.50;;
6751;SDS011;3413;47.680;9.166;2023-08-20T03:46:48;8.23;;;3.10;;
6751;SDS011;3413;47.680;9.166;2023-08-20T03:51:51;9.07;;;3.80;;
6751;SDS011;3413;47.680;9.166;2023-08-20T03:56:56;8.93;;;3.97;;
6751;SDS011;3413;47.680;9.166;2023-08-20T04:01:58;9.63;;;3.60;;
6751;SDS011;3413;47.680;9.166;2023-08-20T04:07:00;8.57;;;3.70;;
6751;SDS011;3413;47.680;9.166;2023-08-20T04:12:03;7.27;;;3.50;;
6751;SDS011;3413;47.680;9.166;2023-08-20T04:17:05;11.03;;;4.57;;
6751;SDS011;3413;47.680;9.166;2023-08-20T04:22:07;4.90;;;2.97;;
6751;SDS011;3413;47.680;9.166;2023-08-20T04:27:09;6.93;;;3.40;;
6751;SDS011;3413;47.680;9.166;2023-08-20T04:32:14;6.10;;;3.37;;
6751;SDS011;3413;47.680;9.166;2023-08-20T04:37:16;6.67;;;3.67;;
6751;SDS011;3413;47.680;9.166;2023-08-20T04:42:19;6.40;;;3.30;;
6751;SDS011;3413;47.680;9.166;2023-08-20T04:47:21;6.90;;;3.77;;
6751;SDS011;3413;47.680;9.166;2023-08-20T04:52:23;7.73;;;3.80;;
6751;SDS011;3413;47.680;9.166;2023-08-20T04:57:25;8.67;;;3.60;;
6751;SDS011;3413;47.680;9.166;2023-08-20T05:02:29;8.30;;;4.30;;
6751;SDS011;3413;47.680;9.166;2023-08-20T05:07:34;8.60;;;3.80;;
6751;SDS011;3413;47.680;9.166;2023-08-20T05:12:36;7.07;;;3.50;;
6751;SDS011;3413;47.680;9.166;2023-08-20T05:17:39;11.00;;;4.70;;
6751;SDS011;3413;47.680;9.166;2023-08-20T05:22:41;11.10;;;4.77;;
6751;SDS011;3413;47.680;9.166;2023-08-20T05:27:43;10.07;;;3.87;;
6751;SDS011;3413;47.680;9.166;2023-08-20T05:32:45;10.00;;;4.87;;
6751;SDS011;3413;47.680;9.166;2023-08-20T05:37:47;10.63;;;4.70;;
6751;SDS011;3413;47.680;9.166;2023-08-20T05:42:49;7.23;;;3.87;;
6751;SDS011;3413;47.680;9.166;2023-08-20T05:47:53;12.00;;;4.27;;
6751;SDS011;3413;47.680;9.166;2023-08-20T05:52:56;10.33;;;4.27;;
6751;SDS011;3413;47.680;9.166;2023-08-20T05:57:58;8.60;;;4.30;;
6751;SDS011;3413;47.680;9.166;2023-08-20T06:03:00;12.90;;;4.70;;
6751;SDS011;3413;47.680;9.166;2023-08-20T06:08:02;14.83;;;4.97;;
6751;SDS011;3413;47.680;9.166;2023-08-20T06:13:04;8.60;;;4.73;;
6751;SDS011;3413;47.680;9.166;2023-08-20T06:18:06;10.57;;;4.83;;
6751;SDS011;3413;47.680;9.166;2023-08-20T06:23:08;8.97;;;4.43;;
6751;SDS011;3413;47.680;9.166;2023-08-20T06:28:11;10.93;;;4.40;;
6751;SDS011;3413;47.680;9.166;2023-08-20T06:33:13;9.87;;;4.40;;
6751;SDS011;3413;47.680;9.166;2023-08-20T06:38:15;7.87;;;4.47;;
6751;SDS011;3413;47.680;9.166;2023-08-20T06:43:17;7.47;;;4.10;;
6751;SDS011;3413;47.680;9.166;2023-08-20T06:48:19;11.20;;;4.70;;
6751;SDS011;3413;47.680;9.166;2023-08-20T06:53:23;8.90;;;4.17;;
6751;SDS011;3413;47.680;9.166;2023-08-20T06:58:25;14.83;;;4.80;;
6751;SDS011;3413;47.680;9.166;2023-08-20T07:03:27;9.70;;;4.90;;
6751;SDS011;3413;47.680;9.166;2023-08-20T07:08:29;7.47;;;4.33;;
6751;SDS011;3413;47.680;9.166;2023-08-20T07:13:30;9.50;;;4.40;;
6751;SDS011;3413;47.680;9.166;2023-08-20T07:18:32;8.13;;;4.53;;
6751;SDS011;3413;47.680;9.166;2023-08-20T07:23:34;11.20;;;5.10;;
6751;SDS011;3413;47.680;9.166;2023-08-20T07:28:36;16.50;;;4.93;;
6751;SDS011;3413;47.680;9.166;2023-08-20T07:33:57;8.93;;;4.30;;
6751;SDS011;3413;47.680;9.166;2023-08-20T07:39:05;9.77;;;4.93;;
6751;SDS011;3413;47.680;9.166;2023-08-20T07:44:07;10.07;;;4.90;;
6751;SDS011;3413;47.680;9.166;2023-08-20T07:49:09;6.20;;;4.20;;
6751;SDS011;3413;47.680;9.166;2023-08-20T07:54:11;10.77;;;4.70;;
6751;SDS011;3413;47.680;9.166;2023-08-20T07:59:13;6.67;;;3.70;;
6751;SDS011;3413;47.680;9.166;2023-08-20T08:04:15;9.30;;;4.30;;
6751;SDS011;3413;47.680;9.166;2023-08-20T08:09:29;6.70;;;4.33;;
6751;SDS011;3413;47.680;9.166;2023-08-20T08:14:33;8.07;;;4.67;;
6751;SDS011;3413;47.680;9.166;2023-08-20T08:19:35;9.57;;;4.50;;
6751;SDS011;3413;47.680;9.166;2023-08-20T08:24:37;8.50;;;4.67;;
6751;SDS011;3413;47.680;9.166;2023-08-20T08:29:39;7.97;;;4.50;;
6751;SDS011;3413;47.680;9.166;2023-08-20T08:34:41;8.40;;;4.43;;
6751;SDS011;3413;47.680;9.166;2023-08-20T08:39:43;13.73;;;3.90;;
6751;SDS011;3413;47.680;9.166;2023-08-20T08:44:45;15.33;;;4.43;;
6751;SDS011;3413;47.680;9.166;2023-08-20T08:49:47;13.17;;;4.53;;
6751;SDS011;3413;47.680;9.166;2023-08-20T08:54:50;7.80;;;3.70;;
6751;SDS011;3413;47.680;9.166;2023-08-20T08:59:55;9.50;;;4.90;;
6751;SDS011;3413;47.680;9.166;2023-08-20T09:04:57;8.50;;;5.00;;
6751;SDS011;3413;47.680;9.166;2023-08-20T09:10:00;8.83;;;4.60;;
6751;SDS011;3413;47.680;9.166;2023-08-20T09:15:02;7.13;;;4.37;;
6751;SDS011;3413;47.680;9.166;2023-08-20T09:20:04;7.80;;;4.13;;
6751;SDS011;3413;47.680;9.166;2023-08-20T09:25:06;14.60;;;4.33;;
6751;SDS011;3413;47.680;9.166;2023-08-20T09:30:10;17.67;;;4.50;;
6751;SDS011;3413;47.680;9.166;2023-08-20T09:35:20;12.67;;;4.80;;
6751;SDS011;3413;47.680;9.166;2023-08-20T09:40:22;13.73;;;3.80;;
6751;SDS011;3413;47.680;9.166;2023-08-20T09:45:24;8.83;;;4.67;;
6751;SDS011;3413;47.680;9.166;2023-08-20T09:50:27;15.90;;;4.47;;
6751;SDS011;3413;47.680;9.166;2023-08-20T09:55:35;11.00;;;4.13;;
6751;SDS011;3413;47.680;9.166;2023-08-20T10:00:40;11.83;;;4.60;;
6751;SDS011;3413;47.680;9.166;2023-08-20T10:05:42;16.33;;;3.80;;
6751;SDS011;3413;47.680;9.166;2023-08-20T10:10:46;21.10;;;5.03;;
6751;SDS011;3413;47.680;9.166;2023-08-20T10:15:48;9.03;;;4.57;;
6751;SDS011;3413;47.680;9.166;2023-08-20T10:20:51;10.37;;;4.50;;
6751;SDS011;3413;47.680;9.166;2023-08-20T10:25:53;11.80;;;4.07;;
6751;SDS011;3413;47.680;9.166;2023-08-20T10:36:17;11.00;;;4.40;;
6751;SDS011;3413;47.680;9.166;2023-08-20T10:41:24;8.93;;;4.30;;
6751;SDS011;3413;47.680;9.166;2023-08-20T10:46:28;8.13;;;4.07;;
6751;SDS011;3413;47.680;9.166;2023-08-20T10:51:34;8.03;;;4.13;;
6751;SDS011;3413;47.680;9.166;2023-08-20T11:01:51;9.90;;;4.17;;
6751;SDS011;3413;47.680;9.166;2023-08-20T11:06:57;7.53;;;4.10;;
6751;SDS011;3413;47.680;9.166;2023-08-20T11:11:59;7.50;;;4.53;;
6751;SDS011;3413;47.680;9.166;2023-08-20T11:17:02;8.10;;;3.53;;
6751;SDS011;3413;47.680;9.166;2023-08-20T11:22:04;6.87;;;3.80;;
6751;SDS011;3413;47.680;9.166;2023-08-20T11:27:06;8.07;;;3.63;;
6751;SDS011;3413;47.680;9.166;2023-08-20T11:32:08;20.03;;;4.60;;
6751;SDS011;3413;47.680;9.166;2023-08-20T11:37:10;7.90;;;3.50;;
6751;SDS011;3413;47.680;9.166;2023-08-20T11:42:12;6.13;;;3.40;;
6751;SDS011;3413;47.680;9.166;2023-08-20T11:47:15;16.30;;;3.97;;
6751;SDS011;3413;47.680;9.166;2023-08-20T11:52:18;8.43;;;3.13;;
6751;SDS011;3413;47.680;9.166;2023-08-20T11:57:22;8.07;;;3.63;;
6751;SDS011;3413;47.680;9.166;2023-08-20T12:02:24;5.53;;;3.07;;
6751;SDS011;3413;47.680;9.166;2023-08-20T12:07:40;4.63;;;2.67;;
6751;SDS011;3413;47.680;9.166;2023-08-20T12:12:42;8.60;;;3.20;;
6751;SDS011;3413;47.680;9.166;2023-08-20T12:23:03;3.97;;;2.70;;
6751;SDS011;3413;47.680;9.166;2023-08-20T12:28:07;17.27;;;3.58;;
6751;SDS011;3413;47.680;9.166;2023-08-20T12:33:09;5.10;;;3.07;;
6751;SDS011;3413;47.680;9.166;2023-08-20T12:38:12;7.87;;;3.23;;
6751;SDS011;3413;47.680;9.166;2023-08-20T12:43:14;5.40;;;2.87;;
6751;SDS011;3413;47.680;9.166;2023-08-20T12:48:16;6.47;;;3.50;;
6751;SDS011;3413;47.680;9.166;2023-08-20T12:53:18;6.30;;;3.27;;
6751;SDS011;3413;47.680;9.166;2023-08-20T12:58:20;5.57;;;3.07;;
6751;SDS011;3413;47.680;9.166;2023-08-20T13:03:22;6.43;;;3.27;;
6751;SDS011;3413;47.680;9.166;2023-08-20T13:08:24;8.10;;;3.53;;
6751;SDS011;3413;47.680;9.166;2023-08-20T13:13:27;8.30;;;3.37;;
6751;SDS011;3413;47.680;9.166;2023-08-20T13:18:29;10.23;;;3.63;;
6751;SDS011;3413;47.680;9.166;2023-08-20T13:23:31;9.60;;;3.80;;
6751;SDS011;3413;47.680;9.166;2023-08-20T13:28:34;6.57;;;3.60;;
6751;SDS011;3413;47.680;9.166;2023-08-20T13:33:36;7.40;;;4.50;;
6751;SDS011;3413;47.680;9.166;2023-08-20T13:38:38;9.43;;;4.10;;
6751;SDS011;3413;47.680;9.166;2023-08-20T13:43:39;12.60;;;3.23;;
6751;SDS011;3413;47.680;9.166;2023-08-20T13:48:41;4.60;;;2.17;;
6751;SDS011;3413;47.680;9.166;2023-08-20T13:53:43;5.65;;;2.88;;
6751;SDS011;3413;47.680;9.166;2023-08-20T13:58:45;6.67;;;2.60;;
6751;SDS011;3413;47.680;9.166;2023-08-20T14:03:47;4.90;;;2.50;;
6751;SDS011;3413;47.680;9.166;2023-08-20T14:08:50;10.80;;;2.63;;
6751;SDS011;3413;47.680;9.166;2023-08-20T14:13:52;4.72;;;2.38;;
6751;SDS011;3413;47.680;9.166;2023-08-20T14:18:56;4.15;;;2.63;;
6751;SDS011;3413;47.680;9.166;2023-08-20T14:24:01;4.13;;;2.17;;
6751;SDS011;3413;47.680;9.166;2023-08-20T14:29:03;7.88;;;1.92;;
6751;SDS011;3413;47.680;9.166;2023-08-20T14:34:07;3.30;;;1.55;;
6751;SDS011;3413;47.680;9.166;2023-08-20T14:39:12;6.68;;;1.90;;
6751;SDS011;3413;47.680;9.166;2023-08-20T14:44:19;5.65;;;1.90;;
6751;SDS011;3413;47.680;9.166;2023-08-20T14:49:21;5.47;;;1.90;;
6751;SDS011;3413;47.680;9.166;2023-08-20T14:54:26;7.28;;;2.10;;
6751;SDS011;3413;47.680;9.166;2023-08-20T14:59:39;3.83;;;1.85;;
6751;SDS011;3413;47.680;9.166;2023-08-20T15:04:41;4.25;;;1.73;;
6751;SDS011;3413;47.680;9.166;2023-08-20T15:09:49;4.28;;;1.85;;
6751;SDS011;3413;47.680;9.166;2023-08-20T15:14:51;4.93;;;1.67;;
6751;SDS011;3413;47.680;9.166;2023-08-20T15:20:01;3.75;;;2.10;;
6751;SDS011;3413;47.680;9.166;2023-08-20T15:25:20;2.83;;;1.60;;
6751;SDS011;3413;47.680;9.166;2023-08-20T15:30:22;6.00;;;1.40;;
6751;SDS011;3413;47.680;9.166;2023-08-20T15:35:26;3.53;;;1.60;;
6751;SDS011;3413;47.680;9.166;2023-08-20T15:40:28;5.22;;;1.92;;
6751;SDS011;3413;47.680;9.166;2023-08-20T15:45:30;5.10;;;2.22;;
6751;SDS011;3413;47.680;9.166;2023-08-20T15:50:32;4.60;;;1.80;;
6751;SDS011;3413;47.680;9.166;2023-08-20T15:55:34;6.82;;;2.00;;
6751;SDS011;3413;47.680;9.166;2023-08-20T16:00:38;7.70;;;2.33;;
6751;SDS011;3413;47.680;9.166;2023-08-20T16:05:53;6.97;;;1.92;;
6751;SDS011;3413;47.680;9.166;2023-08-20T16:10:56;3.13;;;1.70;;
6751;SDS011;3413;47.680;9.166;2023-08-20T16:15:58;9.77;;;2.35;;
6751;SDS011;3413;47.680;9.166;2023-08-20T16:21:00;6.43;;;2.10;;
6751;SDS011;3413;47.680;9.166;2023-08-20T16:26:02;3.80;;;2.33;;
6751;SDS011;3413;47.680;9.166;2023-08-20T16:31:04;7.15;;;1.90;;
6751;SDS011;3413;47.680;9.166;2023-08-20T16:36:06;9.05;;;1.98;;
6751;SDS011;3413;47.680;9.166;2023-08-20T16:41:09;3.65;;;1.65;;
6751;SDS011;3413;47.680;9.166;2023-08-20T16:46:10;5.00;;;2.10;;
6751;SDS011;3413;47.680;9.166;2023-08-20T16:51:12;6.15;;;1.90;;
6751;SDS011;3413;47.680;9.166;2023-08-20T16:56:14;6.68;;;2.45;;
6751;SDS011;3413;47.680;9.166;2023-08-20T17:01:16;6.18;;;2.80;;
6751;SDS011;3413;47.680;9.166;2023-08-20T17:06:18;4.22;;;2.35;;
6751;SDS011;3413;47.680;9.166;2023-08-20T17:11:20;6.78;;;2.67;;
6751;SDS011;3413;47.680;9.166;2023-08-20T17:16:22;8.95;;;2.95;;
6751;SDS011;3413;47.680;9.166;2023-08-20T17:21:24;7.25;;;2.75;;
6751;SDS011;3413;47.680;9.166;2023-08-20T17:26:27;5.07;;;2.30;;
6751;SDS011;3413;47.680;9.166;2023-08-20T17:31:29;4.38;;;2.67;;
6751;SDS011;3413;47.680;9.166;2023-08-20T17:36:32;7.93;;;2.70;;
6751;SDS011;3413;47.680;9.166;2023-08-20T17:41:34;8.88;;;3.13;;
6751;SDS011;3413;47.680;9.166;2023-08-20T17:46:43;9.15;;;2.95;;
6751;SDS011;3413;47.680;9.166;2023-08-20T17:51:49;6.90;;;3.05;;
6751;SDS011;3413;47.680;9.166;2023-08-20T17:56:51;9.30;;;3.33;;
6751;SDS011;3413;47.680;9.166;2023-08-20T18:01:53;14.18;;;3.88;;
6751;SDS011;3413;47.680;9.166;2023-08-20T18:06:55;5.40;;;3.05;;
6751;SDS011;3413;47.680;9.166;2023-08-20T18:11:58;5.37;;;3.00;;
6751;SDS011;3413;47.680;9.166;2023-08-20T18:17:00;4.82;;;2.50;;
6751;SDS011;3413;47.680;9.166;2023-08-20T18:22:02;5.70;;;3.13;;
6751;SDS011;3413;47.680;9.166;2023-08-20T18:27:04;9.67;;;2.60;;
6751;SDS011;3413;47.680;9.166;2023-08-20T18:32:06;5.73;;;2.93;;
6751;SDS011;3413;47.680;9.166;2023-08-20T18:37:08;6.77;;;2.60;;
6751;SDS011;3413;47.680;9.166;2023-08-20T18:42:10;5.43;;;3.10;;
6751;SDS011;3413;47.680;9.166;2023-08-20T18:47:12;6.77;;;3.10;;
6751;SDS011;3413;47.680;9.166;2023-08-20T18:52:14;5.47;;;2.50;;
6751;SDS011;3413;47.680;9.166;2023-08-20T18:57:16;9.30;;;3.10;;
6751;SDS011;3413;47.680;9.166;2023-08-20T19:02:18;8.00;;;3.13;;
6751;SDS011;3413;47.680;9.166;2023-08-20T19:07:20;13.10;;;3.10;;
6751;SDS011;3413;47.680;9.166;2023-08-20T19:12:23;11.93;;;5.47;;
6751;SDS011;3413;47.680;9.166;2023-08-20T19:17:25;6.73;;;3.20;;
6751;SDS011;3413;47.680;9.166;2023-08-20T19:22:27;7.57;;;3.17;;
6751;SDS011;3413;47.680;9.166;2023-08-20T19:27:29;8.47;;;3.13;;
6751;SDS011;3413;47.680;9.166;2023-08-20T19:32:35;5.50;;;2.90;;
6751;SDS011;3413;47.680;9.166;2023-08-20T19:37:37;10.40;;;4.37;;
6751;SDS011;3413;47.680;9.166;2023-08-20T19:42:39;13.13;;;5.70;;
6751;SDS011;3413;47.680;9.166;2023-08-20T19:47:43;15.20;;;6.50;;
6751;SDS011;3413;47.680;9.166;2023-08-20T19:52:45;6.90;;;3.13;;
6751;SDS011;3413;47.680;9.166;2023-08-20T19:57:47;6.87;;;3.47;;
6751;SDS011;3413;47.680;9.166;2023-08-20T20:02:49;9.27;;;3.13;;
6751;SDS011;3413;47.680;9.166;2023-08-20T20:07:53;6.50;;;3.03;;
6751;SDS011;3413;47.680;9.166;2023-08-20T20:12:55;8.60;;;2.97;;
6751;SDS011;3413;47.680;9.166;2023-08-20T20:17:57;5.27;;;3.20;;
6751;SDS011;3413;47.680;9.166;2023-08-20T20:22:59;6.33;;;3.17;;
6751;SDS011;3413;47.680;9.166;2023-08-20T20:28:02;7.63;;;3.20;;
6751;SDS011;3413;47.680;9.166;2023-08-20T20:33:04;6.73;;;3.03;;
6751;SDS011;3413;47.680;9.166;2023-08-20T20:38:06;9.67;;;2.77;;
6751;SDS011;3413;47.680;9.166;2023-08-20T20:43:08;6.10;;;3.00;;
6751;SDS011;3413;47.680;9.166;2023-08-20T20:48:12;7.70;;;3.20;;
6751;SDS011;3413;47.680;9.166;2023-08-20T20:53:14;10.60;;;2.70;;
6751;SDS011;3413;47.680;9.166;2023-08-20T20:58:16;11.70;;;3.47;;
6751;SDS011;3413;47.680;9.166;2023-08-20T21:03:18;8.90;;;3.00;;
6751;SDS011;3413;47.680;9.166;2023-08-20T21:08:20;9.80;;;3.40;;
6751;SDS011;3413;47.680;9.166;2023-08-20T21:13:22;7.30;;;3.30;;
6751;SDS011;3413;47.680;9.166;2023-08-20T21:18:24;6.10;;;3.37;;
6751;SDS011;3413;47.680;9.166;2023-08-20T21:23:26;4.17;;;2.60;;
6751;SDS011;3413;47.680;9.166;2023-08-20T21:28:28;4.33;;;2.77;;
6751;SDS011;3413;47.680;9.166;2023-08-20T21:33:30;6.73;;;3.20;;
6751;SDS011;3413;47.680;9.166;2023-08-20T21:38:32;5.57;;;2.70;;
6751;SDS011;3413;47.680;9.166;2023-08-20T21:43:34;7.63;;;2.97;;
6751;SDS011;3413;47.680;9.166;2023-08-20T21:48:36;11.13;;;3.23;;
6751;SDS011;3413;47.680;9.166;2023-08-20T21:53:38;5.50;;;3.00;;
6751;SDS011;3413;47.680;9.166;2023-08-20T21:58:40;6.60;;;3.13;;
6751;SDS011;3413;47.680;9.166;2023-08-20T22:03:41;6.53;;;2.90;;
6751;SDS011;3413;47.680;9.166;2023-08-20T22:08:44;11.17;;;4.00;;
6751;SDS011;3413;47.680;9.166;2023-08-20T22:13:46;8.77;;;3.20;;
6751;SDS011;3413;47.680;9.166;2023-08-20T22:18:48;8.83;;;4.17;;
6751;SDS011;3413;47.680;9.166;2023-08-20T22:23:50;6.17;;;3.13;;
6751;SDS011;3413;47.680;9.166;2023-08-20T22:28:51;7.90;;;3.80;;
6751;SDS011;3413;47.680;9.166;2023-08-20T22:33:53;6.47;;;3.50;;
6751;SDS011;3413;47.680;9.166;2023-08-20T22:38:56;7.10;;;3.50;;
6751;SDS011;3413;47.680;9.166;2023-08-20T22:43:58;10.27;;;4.10;;
6751;SDS011;3413;47.680;9.166;2023-08-20T22:49:00;7.67;;;3.30;;
6751;SDS011;3413;47.680;9.166;2023-08-20T22:54:02;13.70;;;3.80;;
6751;SDS011;3413;47.680;9.166;2023-08-20T22:59:04;6.03;;;3.77;;
6751;SDS011;3413;47.680;9.166;2023-08-20T23:04:06;7.83;;;3.83;;
6751;SDS011;3413;47.680;9.166;2023-08-20T23:09:08;9.80;;;3.90;;
6751;SDS011;3413;47.680;9.166;2023-08-20T23:14:10;6.50;;;3.50;;
6751;SDS011;3413;47.680;9.166;2023-08-20T23:19:12;6.70;;;3.20;;
6751;SDS011;3413;47.680;9.166;2023-08-20T23:24:14;8.43;;;3.90;;
6751;SDS011;3413;47.680;9.166;2023-08-20T23:29:16;11.00;;;3.63;;
6751;SDS011;3413;47.680;9.166;2023-08-20T23:34:17;8.30;;;4.00;;
6751;SDS011;3413;47.680;9.166;2023-08-20T23:39:19;13.50;;;4.03;;
6751;SDS011;3413;47.680;9.166;2023-08-20T23:44:21;7.93;;;4.03;;
6751;SDS011;3413;47.680;9.166;2023-08-20T23:49:23;7.53;;;3.67;;
6751;SDS011;3413;47.680;9.166;2023-08-20T23:54:25;6.33;;;3.47;;
6751;SDS011;3413;47.680;9.166;2023-08-20T23:59:27;6.10;;;3.83;;
